^^
Datos históricos de la estación: Murcia-Puente Tocinos
Diario Informe para Agosto 19, 2022 Unidades:  Ingés    Métrico   Ambas
Diario Semanal Mensual Anual
  Máxima: Mínima: Promedio:
Temperatura: 90.1 °F 73.8 °F 81.5 °F
Punto de rocio: 70.2 °F 60.3 °F 65.7 °F
Humedad: 81% 38.1% 61%
Velocidad viento: 12.3mph 0mph 5mph
Racha viento: 24.6mph - -
Viento- - SE
Presión: 30.1 in 30 in -
Precipitación: 0 in    
 
 
Tabla de datos para Agosto 19, 2022
Hora Temperatura Punto de rocio Presión Viento Velocidad viento Racha viento Humedad Intensidad lluvia(por hora) Nubes
00:04 77.7 °F 70 °F 30 in NNE 5.3 mph 9.2 mph 77% 0 in
00:09 77.5 °F 69.8 °F 30 in NE 5.4 mph 8.1 mph 77% 0 in
00:14 77.5 °F 70 °F 30 in NE 4.9 mph 8.5 mph 77.6% 0 in
00:19 77.5 °F 70.2 °F 30 in NE 4.7 mph 8.1 mph 78% 0 in
00:24 77.4 °F 70 °F 30 in NE 5.2 mph 8.1 mph 78% 0 in
00:29 77.4 °F 70 °F 30 in NNE 5.4 mph 8.1 mph 78% 0 in
00:34 77.4 °F 70 °F 30 in NE 5.3 mph 9.2 mph 78% 0 in
00:39 77.4 °F 70 °F 30 in NE 5.2 mph 6.9 mph 78% 0 in
00:44 77.2 °F 69.8 °F 30 in NE 5.2 mph 6.9 mph 78% 0 in
00:49 77.2 °F 70.2 °F 30 in NE 5.2 mph 6.9 mph 78.9% 0 in
00:54 77.2 °F 70.2 °F 30 in NE 4.6 mph 7.4 mph 79% 0 in
00:59 77.2 °F 70.2 °F 30 in NE 4.3 mph 8.1 mph 79% 0 in
01:04 77 °F 70 °F 30 in NE 4.6 mph 8.1 mph 79% 0 in
01:09 76.8 °F 69.8 °F 30 in NE 4.7 mph 7.6 mph 79% 0 in
01:14 76.8 °F 69.8 °F 30 in NE 4.7 mph 8.1 mph 79% 0 in
01:19 76.8 °F 69.8 °F 30 in NE 4.7 mph 7.4 mph 79% 0 in
01:24 76.8 °F 69.8 °F 30 in NE 4.7 mph 5.8 mph 79% 0 in
01:29 76.8 °F 69.8 °F 30 in NE 4.7 mph 6.2 mph 79% 0 in
01:34 76.8 °F 69.8 °F 30 in NE 3.7 mph 5.8 mph 79% 0 in
01:39 76.8 °F 69.8 °F 30 in NE 3.1 mph 5.9 mph 79% 0 in
01:44 76.6 °F 69.6 °F 30 in NE 3.1 mph 5.8 mph 79% 0 in
01:49 76.6 °F 69.8 °F 30 in NE 3.1 mph 4.6 mph 79.5% 0 in
01:54 76.6 °F 70 °F 30 in NE 3 mph 4.7 mph 80% 0 in
01:59 76.5 °F 69.8 °F 30 in NE 2.9 mph 5.8 mph 80% 0 in
02:04 76.5 °F 69.8 °F 30 in NE 3 mph 5.8 mph 80% 0 in
02:09 76.5 °F 69.8 °F 30 in NE 3.1 mph 5.2 mph 80% 0 in
02:14 76.5 °F 69.8 °F 30 in NE 3.1 mph 5.2 mph 80% 0 in
02:19 76.5 °F 69.8 °F 30 in NE 3.1 mph 4.6 mph 80% 0 in
02:24 76.5 °F 69.8 °F 30 in NE 2.6 mph 4.7 mph 80% 0 in
02:29 76.5 °F 69.8 °F 30 in NE 2.4 mph 4.6 mph 80% 0 in
02:34 76.3 °F 69.6 °F 30 in NE 2.7 mph 4.6 mph 80% 0 in
02:39 76.3 °F 69.6 °F 30 in NNE 2.9 mph 4.6 mph 80% 0 in
02:44 76.3 °F 70 °F 30 in NNE 2.5 mph 4.6 mph 80.9% 0 in
02:49 76.3 °F 70 °F 30 in ENE 2.4 mph 5.9 mph 80.8% 0 in
02:54 76.5 °F 69.8 °F 30 in Este 2.4 mph 5.8 mph 80% 0 in
02:59 76.5 °F 69.8 °F 30 in Este 2.4 mph 4.6 mph 80% 0 in
03:04 76.5 °F 69.8 °F 30 in Este 2.1 mph 2.4 mph 80% 0 in
03:09 76.6 °F 70 °F 30 in Este 2 mph 3.5 mph 80% 0 in
03:14 76.6 °F 69.8 °F 30 in ENE 1.6 mph 5.2 mph 79.5% 0 in
03:19 76.6 °F 69.6 °F 30 in NNE 1.4 mph 4.7 mph 79% 0 in
03:24 76.5 °F 69.8 °F 30 in NE 2.5 mph 4.7 mph 79.9% 0 in
03:29 76.3 °F 69.8 °F 30 in NE 2.9 mph 4.6 mph 80.2% 0 in
03:34 76.1 °F 69.8 °F 30 in NE 2.5 mph 2.3 mph 81% 0 in
03:39 76.3 °F 70 °F 30 in NE 2.4 mph 2.3 mph 81% 0 in
03:44 76.3 °F 70 °F 30 in NE 0.8 mph 3.5 mph 81% 0 in
03:49 76.3 °F 70 °F 30 in Calm   2.3 mph 81% 0 in
03:54 76.5 °F 70.2 °F 30 in Calm   4.6 mph 81% 0 in
03:59 76.3 °F 70 °F 30 in Calm   5.9 mph 81% 0 in
04:04 76.3 °F 70 °F 30 in NNE 1.6 mph 3.5 mph 81% 0 in
04:09 76.3 °F 70 °F 30 in NNE 2.4 mph 2.9 mph 81% 0 in
04:14 76.3 °F 70 °F 30 in NNE 1.7 mph 4.6 mph 81% 0 in
04:19 76.1 °F 69.8 °F 30 in NNO 1.4 mph 4.6 mph 81% 0 in
04:24 75.9 °F 69.8 °F 30 in NNE 1.9 mph 5.2 mph 81% 0 in
04:29 75.9 °F 69.6 °F 30 in NNE 2 mph 5.2 mph 81% 0 in
04:34 75.7 °F 69.4 °F 30 in NNE 2.2 mph 4.6 mph 81% 0 in
04:39 75.7 °F 69.4 °F 30 in North 2.4 mph 4.6 mph 81% 0 in
04:44 75.6 °F 69.4 °F 30 in NNE 2.7 mph 4.6 mph 81% 0 in
04:49 75.6 °F 69.3 °F 30 in NNE 2.9 mph 4.7 mph 81% 0 in
04:54 75.4 °F 69.1 °F 30 in NNE 3 mph 5.8 mph 81% 0 in
04:59 75.2 °F 69.1 °F 30 in NNE 3.1 mph 4.6 mph 81% 0 in
05:04 75.2 °F 68.9 °F 30 in NE 3 mph 4.6 mph 81% 0 in
05:09 75 °F 68.7 °F 30 in NE 2.9 mph 4.6 mph 81% 0 in
05:14 75 °F 68.7 °F 30 in NE 2.5 mph 3.6 mph 81% 0 in
05:19 75 °F 68.9 °F 30 in SSE 2.4 mph 5.8 mph 81% 0 in
05:24 75.2 °F 68.9 °F 30 in SSE 2.9 mph 5.8 mph 81% 0 in
05:29 75 °F 68.7 °F 30 in SSE 2.9 mph 5.2 mph 81% 0 in
05:34 75 °F 68.7 °F 30 in SSE 3.4 mph 5.2 mph 81% 0 in
05:39 75 °F 68.7 °F 30 in SSO 3.6 mph 6.9 mph 80.6% 0 in
05:44 75 °F 68.4 °F 30 in SSO 3.6 mph 5.9 mph 80% 0 in
05:49 75 °F 68.2 °F 30 in SSO 3.6 mph 7.4 mph 79% 0 in
05:54 75 °F 68.2 °F 30 in SSO 4.1 mph 6.2 mph 79% 0 in
05:59 75 °F 68 °F 30 in SSO 4.3 mph 6.9 mph 78.6% 0 in
06:04 75.2 °F 67.8 °F 30 in SSO 4.1 mph 5.8 mph 78% 0 in
06:09 75.2 °F 67.8 °F 30 in SSO 4 mph 6.9 mph 78% 0 in
06:14 75.2 °F 68 °F 30 in SO 4 mph 6.9 mph 78% 0 in
06:19 75.4 °F 68 °F 30 in SO 4 mph 5.8 mph 78% 0 in
06:24 75.4 °F 68 °F 30 in OSO 3.7 mph 5.2 mph 78% 0 in
06:29 75.4 °F 68 °F 30 in OSO 3.6 mph 5.4 mph 78% 0 in
06:34 75.4 °F 68 °F 30 in SO 3.2 mph 5.8 mph 78% 0 in
06:39 75.4 °F 68 °F 30 in OSO 3.1 mph 5.2 mph 78% 0 in
06:44 75.4 °F 68 °F 30 in Oeste 2.6 mph 3.5 mph 78% 0 in
06:49 75.2 °F 67.8 °F 30 in Oeste 2.4 mph 2.9 mph 78% 0 in
06:54 75 °F 67.8 °F 30 in ONO 1.7 mph 2.4 mph 78% 0 in
06:59 75 °F 67.8 °F 30 in ONO 1.4 mph 3.5 mph 78.4% 0 in
07:04 74.8 °F 67.8 °F 30 in ONO 1.7 mph 4.3 mph 79% 0 in
07:09 74.7 °F 67.3 °F 30 in Este 1.8 mph 5.2 mph 78.1% 0 in
07:14 74.1 °F 67.1 °F 30 in Este 2.5 mph 4.7 mph 78.8% 0 in
07:19 73.8 °F 67.3 °F 30 in ESE 2.9 mph 4.6 mph 79.9% 0 in
07:24 73.8 °F 67.3 °F 30 in ESE 2.5 mph 4.6 mph 80.1% 0 in
07:29 73.8 °F 67.6 °F 30 in ENE 2.4 mph 3.5 mph 81% 0 in
07:34 73.8 °F 67.6 °F 30 in Este 2 mph 4.6 mph 81% 0 in
07:39 73.8 °F 67.6 °F 30 in Sur 1.8 mph 4.7 mph 81% 0 in
07:44 73.8 °F 67.6 °F 30 in Sur 2.5 mph 5.9 mph 81% 0 in
07:49 73.9 °F 67.6 °F 30 in Sur 2.9 mph 5.9 mph 81% 0 in
07:54 74.1 °F 68 °F 30 in SSO 3.4 mph 5.8 mph 81% 0 in
07:59 74.3 °F 67.8 °F 30 in SSO 3.6 mph 5.9 mph 80.2% 0 in
08:04 74.5 °F 67.8 °F 30 in SO 3.6 mph 4.6 mph 80% 0 in
08:09 74.7 °F 68 °F 30 in OSO 3.6 mph 4.6 mph 80% 0 in
08:14 74.8 °F 68 °F 30 in OSO 2.8 mph 4.6 mph 79.4% 0 in
08:19 75 °F 68 °F 30 in Oeste 2.4 mph 4.6 mph 78.9% 0 in
08:24 75.2 °F 68 °F 30 in Oeste 2.4 mph 3.5 mph 78% 0 in
08:29 75.4 °F 68 °F 30 in SO 2.4 mph 4.6 mph 78% 0 in
08:34 75.6 °F 68.2 °F 30 in SSO 2.4 mph 4.6 mph 78% 0 in
08:39 75.7 °F 68 °F 30 in SO 2.4 mph 4.7 mph 77.1% 0 in
08:44 75.7 °F 68 °F 30.1 in SSO 2.7 mph 5.9 mph 77% 0 in
08:49 75.9 °F 68.2 °F 30.1 in SSE 2.9 mph 5.8 mph 77% 0 in
08:54 76.1 °F 68.2 °F 30.1 in SE 3.4 mph 5.2 mph 76.7% 0 in
08:59 76.5 °F 68.2 °F 30.1 in Sur 3.6 mph 5.9 mph 75.8% 0 in
09:04 76.5 °F 67.8 °F 30.1 in SSO 3.2 mph 5.9 mph 75% 0 in
09:09 76.5 °F 68.2 °F 30.1 in SSE 3.1 mph 4.6 mph 75.8% 0 in
09:14 76.6 °F 68 °F 30.1 in SE 3.1 mph 6.4 mph 75% 0 in
09:19 76.8 °F 68.2 °F 30.1 in SSE 3.1 mph 6.9 mph 74.9% 0 in
09:24 77 °F 68.2 °F 30.1 in Sur 3.1 mph 5.8 mph 74.1% 0 in
09:29 77.2 °F 68.2 °F 30.1 in OSO 3.1 mph 5.8 mph 74% 0 in
09:34 77.5 °F 68.5 °F 30.1 in OSO 3.1 mph 3.5 mph 74% 0 in
09:39 77.9 °F 68.5 °F 30.1 in ONO 3.1 mph 4.7 mph 72.8% 0 in
09:44 78.4 °F 68.4 °F 30.1 in ONO 2.2 mph 4.7 mph 71.5% 0 in
09:49 78.6 °F 68.2 °F 30.1 in SSO 1.8 mph 6.9 mph 70.5% 0 in
09:54 78.6 °F 68.2 °F 30.1 in SSE 2.5 mph 5.8 mph 70.1% 0 in
09:59 79 °F 68.7 °F 30.1 in North 2.9 mph 4.6 mph 70.6% 0 in
10:04 79.3 °F 68 °F 30.1 in SO 2.9 mph 6.2 mph 68.4% 0 in
10:09 79.3 °F 68.4 °F 30.1 in SO 2.9 mph 5.2 mph 69% 0 in
10:14 79.5 °F 68.5 °F 30.1 in SO 2.9 mph 5.8 mph 69% 0 in
10:19 79.9 °F 68.7 °F 30.1 in ESE 2.9 mph 4.6 mph 68.9% 0 in
10:24 80.2 °F 68.4 °F 30.1 in NO 2.5 mph 4.7 mph 66.8% 0 in
10:29 80.8 °F 68.2 °F 30.1 in ONO 2.4 mph 5.9 mph 65.7% 0 in
10:34 80.8 °F 67.8 °F 30.1 in ONO 2.7 mph 6.9 mph 65% 0 in
10:39 80.6 °F 67.8 °F 30.1 in OSO 2.9 mph 6.9 mph 65% 0 in
10:44 80.4 °F 67.6 °F 30.1 in Oeste 3 mph 8.1 mph 65% 0 in
10:49 80.4 °F 67.5 °F 30.1 in ONO 3.1 mph 5.8 mph 64.7% 0 in
10:54 80.8 °F 67.1 °F 30.1 in NO 3 mph 4.7 mph 63.1% 0 in
10:59 81.1 °F 67.3 °F 30.1 in North 2.9 mph 6.9 mph 62.8% 0 in
11:04 81.5 °F 67.3 °F 30.1 in ENE 3 mph 6.9 mph 62% 0 in
11:09 81.9 °F 67.3 °F 30.1 in SSE 3.1 mph 6.9 mph 61.4% 0 in
11:14 81.9 °F 67.3 °F 30.1 in Sur 3.5 mph 6.9 mph 61.3% 0 in
11:19 82 °F 67.3 °F 30.1 in Sur 3.6 mph 8.1 mph 61% 0 in
11:24 82 °F 67.3 °F 30.1 in SSO 3.9 mph 6.9 mph 60.9% 0 in
11:29 82.2 °F 66.9 °F 30.1 in SO 4 mph 7.4 mph 60.1% 0 in
11:34 82.2 °F 66.9 °F 30.1 in OSO 3.7 mph 8.5 mph 60% 0 in
11:39 82.2 °F 66.9 °F 30.1 in SSO 3.6 mph 5.2 mph 60% 0 in
11:44 82.8 °F 67.5 °F 30.1 in SE 3.6 mph 8.5 mph 60% 0 in
11:49 83.5 °F 67.3 °F 30.1 in Este 3.6 mph 8.1 mph 58.5% 0 in
11:54 83.8 °F 67.5 °F 30.1 in SE 3.9 mph 4.7 mph 57.7% 0 in
11:59 84.4 °F 66.7 °F 30.1 in SE 4 mph 8.1 mph 55.7% 0 in
12:04 84.7 °F 66.4 °F 30.1 in ESE 3.2 mph 6.9 mph 54.2% 0 in
12:09 85.3 °F 66 °F 30.1 in SSE 3.1 mph 5.9 mph 52.7% 0 in
12:14 85.8 °F 64.8 °F 30.1 in ESE 3.1 mph 8.1 mph 49.7% 0 in
12:19 85.8 °F 64 °F 30.1 in Oeste 3.1 mph 5.9 mph 48.3% 0 in
12:24 86.4 °F 64.6 °F 30.1 in Este 3.4 mph 8.5 mph 48.5% 0 in
12:29 86.4 °F 64.6 °F 30.1 in SSE 3.6 mph 8.1 mph 48.4% 0 in
12:34 86.2 °F 64.8 °F 30 in SE 3.9 mph 4.7 mph 49% 0 in
12:39 86.2 °F 64.2 °F 30 in SSE 4 mph 9.2 mph 47.8% 0 in
12:44 86.2 °F 63.1 °F 30 in SSO 4.2 mph 10.4 mph 46.3% 0 in
12:49 86.2 °F 62.6 °F 30 in SSE 4.3 mph 8.1 mph 45.5% 0 in
12:54 86.4 °F 61.9 °F 30 in Sur 4.9 mph 9.2 mph 43.8% 0 in
12:59 86.7 °F 61.5 °F 30 in SSE 5.2 mph 9.2 mph 43.2% 0 in
13:04 86.9 °F 61.2 °F 30 in SSE 5.2 mph 10.4 mph 42.2% 0 in
13:09 87.1 °F 61.3 °F 30 in SSE 5.2 mph 7.4 mph 42.1% 0 in
13:14 87.3 °F 61.2 °F 30 in SSO 4.6 mph 10.4 mph 41.7% 0 in
13:19 87.1 °F 61.2 °F 30 in OSO 4.3 mph 10.4 mph 42% 0 in
13:24 87.1 °F 61.2 °F 30 in SSO 4.6 mph 7.6 mph 42% 0 in
13:29 87.6 °F 61.7 °F 30 in SSE 4.7 mph 12.7 mph 42% 0 in
13:34 88.2 °F 61.7 °F 30 in ESE 5.2 mph 11.5 mph 41.3% 0 in
13:39 88.2 °F 61.5 °F 30 in ESE 5.4 mph 9.2 mph 40.9% 0 in
13:44 88.2 °F 61 °F 30 in SSE 5.3 mph 6.9 mph 40.2% 0 in
13:49 88.5 °F 61.2 °F 30 in ENE 5.2 mph 6.9 mph 40.1% 0 in
13:54 89.1 °F 61.5 °F 30 in ESE 3.5 mph 8.1 mph 39.8% 0 in
13:59 89.1 °F 61 °F 30 in SSE 2.9 mph 10.4 mph 39.2% 0 in
14:04 89.1 °F 61.5 °F 30 in Este 4.6 mph 8.1 mph 40% 0 in
14:09 89.2 °F 61.3 °F 30 in SSO 5.2 mph 12.7 mph 39.4% 0 in
14:14 89.4 °F 60.8 °F 30 in Sur 5.2 mph 10.4 mph 38.5% 0 in
14:19 89.2 °F 60.3 °F 30 in SO 5.2 mph 8.1 mph 38.1% 0 in
14:24 89.1 °F 60.6 °F 30 in OSO 4.8 mph 6.2 mph 38.7% 0 in
14:29 89.4 °F 60.4 °F 30 in SE 4.7 mph 12.7 mph 38.1% 0 in
14:34 89.2 °F 60.6 °F 30 in ESE 5.2 mph 9.2 mph 38.5% 0 in
14:39 89.4 °F 61.3 °F 30 in NNE 5.4 mph 10.4 mph 39.2% 0 in
14:44 90 °F 61.7 °F 30 in SE 4.4 mph 13.5 mph 39% 0 in
14:49 90.1 °F 61.5 °F 30 in SE 4 mph 13.8 mph 38.4% 0 in
14:54 90.1 °F 64.2 °F 30 in SSE 6 mph 14 mph 42.5% 0 in
14:59 90 °F 65.7 °F 30 in SE 6.9 mph 17.3 mph 44.8% 0 in
15:04 89.4 °F 66.4 °F 30 in ESE 8.1 mph 16.1 mph 46.7% 0 in
15:09 89.6 °F 66.2 °F 30 in SE 8.5 mph 17.3 mph 46.1% 0 in
15:14 88.9 °F 66 °F 30 in SE 8.6 mph 24.6 mph 47.1% 0 in
15:19 88.9 °F 66.2 °F 30 in ESE 8.7 mph 17.3 mph 47.4% 0 in
15:24 88.5 °F 66.2 °F 30 in ESE 9.6 mph 18.4 mph 47.7% 0 in
15:29 88.9 °F 65.8 °F 30 in ESE 10 mph 17 mph 46.9% 0 in
15:34 89.2 °F 65.7 °F 30 in SE 9.1 mph 17.8 mph 46% 0 in
15:39 89.2 °F 65.7 °F 30 in ESE 8.7 mph 18.4 mph 46% 0 in
15:44 89.1 °F 65.3 °F 30 in ESE 9.6 mph 15 mph 45.7% 0 in
15:49 88.9 °F 65.5 °F 30 in SE 10 mph 19.2 mph 46% 0 in
15:54 89.1 °F 65.3 °F 30 in ESE 9.8 mph 19.6 mph 45.6% 0 in
15:59 89.1 °F 64.9 °F 30 in ESE 9.7 mph 18.4 mph 45% 0 in
16:04 89.1 °F 64.8 °F 30 in SE 9.9 mph 21.9 mph 44.6% 0 in
16:09 88.9 °F 64.8 °F 30 in ESE 10 mph 20.8 mph 45% 0 in
16:14 88.3 °F 64.4 °F 30 in ESE 11.6 mph 20.7 mph 45% 0 in
16:19 88.9 °F 64 °F 30 in SE 12.3 mph 20.7 mph 44.1% 0 in
16:24 88.9 °F 64 °F 30 in ESE 10.5 mph 21.9 mph 43.8% 0 in
16:29 88.9 °F 64.2 °F 30 in ESE 9.7 mph 18.4 mph 44% 0 in
16:34 89.1 °F 63.9 °F 30 in SE 10.4 mph 16.1 mph 43.2% 0 in
16:39 89.2 °F 63.5 °F 30 in ESE 10.7 mph 17.3 mph 42.5% 0 in
16:44 89.4 °F 63.5 °F 30 in SE 10 mph 17.5 mph 42.3% 0 in
16:49 89.4 °F 63.3 °F 30 in SE 9.7 mph 19 mph 42% 0 in
16:54 89.4 °F 63.1 °F 30 in ESE 9.9 mph 18.4 mph 41.7% 0 in
16:59 89.4 °F 63.3 °F 30 in SE 10 mph 18.4 mph 42% 0 in
17:04 89.6 °F 63.3 °F 30 in SE 9.8 mph 18.4 mph 41.7% 0 in
17:09 89.4 °F 63.3 °F 30 in ESE 9.7 mph 15.2 mph 42% 0 in
17:14 89.4 °F 63.3 °F 30 in ESE 9.7 mph 15.2 mph 42% 0 in
17:19 89.4 °F 63.5 °F 30 in SE 9.7 mph 16.1 mph 42% 0 in
17:24 89.2 °F 63.5 °F 30 in ESE 9.7 mph 19 mph 42.5% 0 in
17:29 89.1 °F 63.7 °F 30 in SE 9.7 mph 15 mph 43% 0 in
17:34 89.1 °F 63.3 °F 30 in SE 9.3 mph 17.3 mph 42.5% 0 in
17:39 89.1 °F 63.3 °F 30 in ESE 9.2 mph 21.3 mph 42.5% 0 in
17:44 88.5 °F 63.1 °F 30 in ESE 10.7 mph 19 mph 43% 0 in
17:49 88.7 °F 63.1 °F 30 in ESE 11.4 mph 19 mph 42.7% 0 in
17:54 88.7 °F 62.6 °F 30 in SE 10.4 mph 18.4 mph 42% 0 in
17:59 88.9 °F 62.8 °F 30 in ESE 10.2 mph 16.3 mph 42% 0 in
18:04 88.7 °F 62.6 °F 30 in ESE 9.4 mph 17.3 mph 42% 0 in
18:09 88.5 °F 62.6 °F 30 in ESE 9.2 mph 24.2 mph 42% 0 in
18:14 88.3 °F 62.4 °F 30 in SE 9.9 mph 19.6 mph 42.3% 0 in
18:19 88.3 °F 63 °F 30 in SE 10.2 mph 16.1 mph 43% 0 in
18:24 88.3 °F 63.1 °F 30 in SE 9.2 mph 19 mph 43% 0 in
18:29 88.3 °F 63.1 °F 30 in ESE 8.7 mph 17.3 mph 43.3% 0 in
18:34 88.2 °F 63 °F 30 in ESE 8.7 mph 22.3 mph 43.3% 0 in
18:39 87.4 °F 63 °F 30 in ESE 8.7 mph 20.7 mph 44% 0 in
18:44 87.4 °F 63 °F 30 in ESE 10.6 mph 16.1 mph 44% 0 in
18:49 87.4 °F 63 °F 30 in ESE 11.4 mph 21.9 mph 44.1% 0 in
18:54 87.1 °F 63.1 °F 30 in ESE 11.2 mph 20.7 mph 45% 0 in
18:59 87.1 °F 63.1 °F 30 in ESE 11.2 mph 19 mph 45% 0 in
19:04 87.1 °F 63.1 °F 30 in ESE 10.3 mph 17.3 mph 45% 0 in
19:09 86.7 °F 62.8 °F 30 in ESE 10 mph 18.4 mph 44.9% 0 in
19:14 86.7 °F 62.6 °F 30 in ESE 10.5 mph 18.4 mph 44.6% 0 in
19:19 86.7 °F 62.1 °F 30 in ESE 10.7 mph 20.7 mph 44% 0 in
19:24 86.4 °F 61.9 °F 30 in ESE 10.2 mph 18.4 mph 44% 0 in
19:29 86.4 °F 61.9 °F 30 in SE 10 mph 15 mph 44% 0 in
19:34 86.4 °F 61.9 °F 30 in ESE 9.1 mph 18.4 mph 44% 0 in
19:39 86.2 °F 61.7 °F 30 in SE 8.7 mph 16.1 mph 44% 0 in
19:44 86.4 °F 61.9 °F 30 in ESE 8.7 mph 13.8 mph 44% 0 in
19:49 86.2 °F 61.7 °F 30 in SE 8.7 mph 17.3 mph 44% 0 in
19:54 86.2 °F 61.5 °F 30 in ESE 8.3 mph 15 mph 43.9% 0 in
19:59 85.8 °F 61.3 °F 30 in ESE 8.1 mph 14 mph 44% 0 in
20:04 85.6 °F 61.3 °F 30 in ESE 8.4 mph 15 mph 44% 0 in
20:09 85.6 °F 61.2 °F 30 in ESE 8.5 mph 12.7 mph 44% 0 in
20:14 85.6 °F 61.2 °F 30 in SE 7.4 mph 12.3 mph 44.1% 0 in
20:19 85.5 °F 61.2 °F 30 in ESE 6.9 mph 12.7 mph 44% 0 in
20:24 85.3 °F 61 °F 30 in ESE 6.4 mph 11.2 mph 44% 0 in
20:29 84.9 °F 60.6 °F 30 in SE 6.2 mph 11.8 mph 44% 0 in
20:34 84.7 °F 60.4 °F 30 in SE 6.2 mph 11.5 mph 44% 0 in
20:39 84.6 °F 60.3 °F 30 in SE 6.2 mph 15 mph 44% 0 in
20:44 84.6 °F 60.6 °F 30 in ESE 6.2 mph 10.7 mph 44.8% 0 in
20:49 84.2 °F 60.8 °F 30 in ESE 6.2 mph 10.4 mph 45.3% 0 in
20:54 83.8 °F 60.8 °F 30 in ESE 5.7 mph 10.7 mph 46% 0 in
20:59 83.7 °F 60.8 °F 30 in ESE 5.4 mph 10.4 mph 46% 0 in
21:04 83.5 °F 61 °F 30 in SE 5.8 mph 11.2 mph 46.8% 0 in
21:09 83.3 °F 61 °F 30 in ESE 5.9 mph 11.5 mph 47% 0 in
21:14 83.1 °F 61 °F 30 in SE 5.5 mph 11.5 mph 47% 0 in
21:19 82.9 °F 60.6 °F 30 in SE 5.4 mph 10.4 mph 47% 0 in
21:24 82.9 °F 60.6 °F 30 in SE 5.8 mph 8.1 mph 47% 0 in
21:29 82.8 °F 60.4 °F 30 in SE 5.9 mph 8.1 mph 46.9% 0 in
21:34 82.8 °F 60.3 °F 30 in ESE 4.8 mph 8.1 mph 46.7% 0 in
21:39 82.8 °F 60.4 °F 30 in ESE 4.3 mph 6.9 mph 47% 0 in
21:44 82.6 °F 60.3 °F 30 in ESE 4.1 mph 8.5 mph 47% 0 in
21:49 82.6 °F 60.3 °F 30 in Este 4 mph 9.2 mph 47% 0 in
21:54 82.2 °F 60.4 °F 30 in ENE 4.2 mph 5.8 mph 47.7% 0 in
21:59 82 °F 60.4 °F 30 in NE 4.3 mph 5.8 mph 48% 0 in
22:04 81.9 °F 60.4 °F 30 in NE 3.4 mph 5.8 mph 48.4% 0 in
22:09 81.5 °F 60.3 °F 30 in NE 3.1 mph 5.8 mph 48.7% 0 in
22:14 81.3 °F 60.4 °F 30 in ENE 3.1 mph 5.9 mph 49.5% 0 in
22:19 81.1 °F 60.6 °F 30 in NE 3.1 mph 6.2 mph 49.9% 0 in
22:24 81 °F 60.6 °F 30 in NE 3.1 mph 5.8 mph 50.1% 0 in
22:29 80.8 °F 61 °F 30 in NNE 3.1 mph 4.7 mph 51% 0 in
22:34 80.8 °F 61.3 °F 30 in ENE 2.6 mph 6.9 mph 51.7% 0 in
22:39 80.4 °F 61.5 °F 30 in NE 2.4 mph 8.1 mph 52.6% 0 in
22:44 80.2 °F 62.1 °F 30 in NE 3.7 mph 7.6 mph 53.9% 0 in
22:49 80.1 °F 63 °F 30 in NE 4.3 mph 8.1 mph 56.2% 0 in
22:54 79.7 °F 63.1 °F 30 in NNE 4.5 mph 5.9 mph 57.1% 0 in
22:59 79.3 °F 63.9 °F 30 in NNE 4.7 mph 9.2 mph 59.1% 0 in
23:04 79 °F 63.9 °F 30 in NE 4.7 mph 6.9 mph 60% 0 in
23:09 78.6 °F 63.9 °F 30 in NE 4.7 mph 6.9 mph 60.6% 0 in
23:14 78.4 °F 63.9 °F 30 in NE 4.7 mph 6.9 mph 61% 0 in
23:19 78.4 °F 64.2 °F 30 in NE 4.7 mph 6.9 mph 61.7% 0 in
23:24 78.3 °F 64.2 °F 30 in NE 4.2 mph 6.2 mph 62% 0 in
23:29 78.3 °F 64.6 °F 30 in NE 4 mph 5.9 mph 62.9% 0 in
23:34 78.1 °F 64.4 °F 30 in NE 4 mph 6.9 mph 63% 0 in
23:39 77.7 °F 64.6 °F 30 in NE 4 mph 6.9 mph 63.9% 0 in
23:44 77.5 °F 64.6 °F 30 in NE 4.5 mph 6.9 mph 64.6% 0 in
23:49 77.4 °F 64.8 °F 30 in NE 4.7 mph 6.9 mph 65% 0 in
23:54 77.4 °F 64.8 °F 30 in NE 4.3 mph 7.4 mph 65.4% 0 in
23:59 77.2 °F 64.9 °F 30 in NE 4.3 mph 6.9 mph 66% 0 in
Murcia-Puente Tocinos, Espa?a
Compliments of Weather Underground - 3 mb

La estación de MeteoMurcia.com, publica sus datos en los siguientes proyectos:

Weather Underground PWS IMURCIAP2 Meteoclimatic www.awekas.at

Web Analytics

Clicky